Archival Weather

Chicago O'Hare International

Chicago, Illinois (KORD)

Report from: Saturday, March 5, 2022 7:53 PM CST
Current time: Saturday, February 4, 2023 9:57 PM CST

Current weather
Weather history
Weather forecast

Present weatherThunderstorm
Temperature18.3°C (64.9°F)
Dew point11.1°C (52.0°F)
Winds 20 kts (10.3 m/s, 23 mph) South-Southwest (200°)
Wind gusts 36 kts (18.5 m/s, 41.4 mph)
Peak wind 36 kts (18.5 m/s, 41.4 mph) South (170°) at 19:53
Visibility10 mi. (16.1 km)
Clouds Scattered clouds with cumulonimbus 5,500 ft. (1,676 m)
Ceiling: Broken clouds 7,000 ft. (2,134 m)
Broken clouds 9,000 ft. (2,743 m)
Altimeter29.67 in.Hg (1005 mB)
Precip. events Thunderstorm began 7:53 PM
Relative humidity63 %
Density altitude862 ft. (263 m)
Remarks System requires maintenance
Automated weather observing station with precipitation discriminator
Lightning observed
Lightning observed cloud to ground
Distant southwest and west occasional west thunderstorm west moving northeast
Flight conditions Visual Meteorological Conditions
Raw dataKORD 060153Z 20020G36KT 10SM TS SCT055CB BKN070 BKN090 18/11 A2967 RMK AO2 PK WND 17036/0153 LTG DSNT SW AND W TSB53 OCNL LTGCG W TS W MOV NE T01830111 $
An unhandled exception has occurred. See browser dev tools for details. Reload 🗙